createdAt,value
2019-04-13T00:02:44.218Z,67.43
2019-04-13T00:05:32.817Z,67.22
2019-04-13T00:08:09.025Z,67.22
2019-04-13T00:11:00.905Z,67.58
2019-04-13T00:13:32.534Z,68.18
2019-04-13T00:16:03.631Z,68.54
2019-04-13T00:18:34.745Z,69.10
2019-04-13T00:21:05.657Z,69.51
2019-04-13T00:23:36.660Z,69.85
2019-04-13T00:26:06.743Z,69.67
2019-04-13T00:28:36.834Z,69.91
2019-04-13T00:31:06.658Z,69.80
2019-04-13T00:33:37.701Z,70.00
2019-04-13T00:36:09.964Z,70.05
2019-04-13T00:38:39.682Z,70.10
2019-04-13T00:41:09.917Z,70.02
2019-04-13T00:43:40.176Z,70.02
2019-04-13T00:46:10.475Z,70.10
2019-04-13T00:48:40.555Z,69.97
2019-04-13T00:51:10.810Z,69.01
2019-04-13T00:53:40.681Z,69.00
2019-04-13T00:56:12.487Z,69.50
2019-04-13T00:58:42.899Z,69.16
2019-04-13T01:01:14.158Z,69.84
2019-04-13T01:03:43.751Z,69.82
2019-04-13T01:06:15.489Z,69.98
2019-04-13T01:08:45.594Z,70.17
2019-04-13T01:11:15.008Z,70.13
2019-04-13T01:17:26.326Z,70.26
2019-04-13T01:19:56.753Z,70.70
2019-04-13T01:22:26.253Z,71.21
2019-04-13T01:24:57.885Z,71.40
2019-04-13T01:27:27.489Z,72.10
2019-04-13T01:29:58.433Z,72.17
2019-04-13T01:32:28.328Z,72.31
2019-04-13T01:35:05.851Z,72.58
2019-04-13T01:37:30.223Z,73.54
2019-04-13T01:40:00.230Z,74.07
2019-04-13T01:42:31.360Z,73.32
2019-04-13T01:45:05.804Z,74.73
2019-04-13T01:47:36.171Z,75.36
2019-04-13T01:50:06.008Z,75.14
2019-04-13T01:52:36.495Z,75.42
2019-04-13T01:55:07.017Z,75.87
2019-04-13T01:57:37.404Z,75.68
2019-04-13T02:00:12.116Z,75.97
2019-04-13T02:02:54.399Z,76.22
2019-04-13T02:05:35.632Z,76.63
2019-04-13T02:08:24.590Z,77.21
2019-04-13T02:10:56.583Z,78.50
2019-04-13T02:13:26.514Z,79.06
2019-04-13T02:15:57.307Z,79.32
2019-04-13T02:18:26.907Z,79.46
2019-04-13T02:20:56.649Z,79.97
2019-04-13T02:23:26.583Z,79.89
2019-04-13T02:25:57.716Z,79.97
2019-04-13T02:28:27.719Z,80.46
2019-04-13T02:30:58.014Z,81.26
2019-04-13T02:33:31.810Z,81.57
2019-04-13T02:36:01.219Z,81.58
2019-04-13T02:38:33.905Z,81.44
2019-04-13T02:41:21.309Z,81.26
2019-04-13T02:43:51.764Z,81.27
2019-04-13T02:46:21.780Z,81.24
2019-04-13T02:48:51.249Z,81.45
2019-04-13T02:51:20.702Z,81.54
2019-04-13T02:53:50.963Z,81.49
2019-04-13T02:56:20.632Z,81.30
2019-04-13T02:58:50.419Z,81.45
2019-04-13T03:01:21.676Z,81.53
2019-04-13T03:03:53.674Z,81.89
2019-04-13T03:06:24.477Z,82.15
2019-04-13T03:08:54.328Z,81.84
2019-04-13T03:11:24.382Z,82.02
2019-04-13T03:13:54.208Z,81.67
2019-04-13T03:16:40.468Z,81.64
2019-04-13T03:19:14.856Z,81.29
2019-04-13T03:21:47.873Z,81.31
2019-04-13T03:24:17.730Z,81.02
2019-04-13T03:26:47.755Z,81.03
2019-04-13T03:29:18.082Z,80.87
2019-04-13T03:31:48.089Z,81.19
2019-04-13T03:34:18.131Z,81.28
2019-04-13T03:36:48.436Z,81.26
2019-04-13T03:39:18.009Z,81.37
2019-04-13T03:41:49.452Z,81.30
2019-04-13T03:44:19.848Z,81.40
2019-04-13T03:46:49.697Z,81.89
2019-04-13T03:49:20.687Z,82.28
2019-04-13T03:51:51.192Z,82.51
2019-04-13T03:54:21.505Z,82.71
2019-04-13T03:56:52.533Z,83.14
2019-04-13T03:59:21.864Z,83.09
2019-04-13T04:01:51.727Z,83.09
2019-04-13T04:04:22.820Z,83.27
2019-04-13T04:06:52.583Z,83.21
2019-04-13T04:09:22.156Z,83.15
2019-04-13T04:11:54.006Z,83.12
2019-04-13T04:14:25.935Z,83.03
2019-04-13T04:16:56.058Z,83.02
2019-04-13T04:19:25.893Z,82.94
2019-04-13T04:21:56.742Z,82.85
2019-04-13T04:24:29.779Z,82.93
2019-04-13T04:26:59.898Z,83.16
2019-04-13T04:29:29.528Z,82.89
2019-04-13T04:31:59.091Z,83.21
2019-04-13T04:34:31.881Z,83.32
2019-04-13T04:37:01.919Z,83.27
2019-04-13T04:39:31.509Z,83.24
2019-04-13T04:42:01.928Z,83.33
2019-04-13T04:44:33.919Z,83.25
2019-04-13T04:47:04.679Z,83.00
2019-04-13T04:49:34.894Z,82.98
2019-04-13T04:52:05.094Z,82.77
2019-04-13T04:54:35.060Z,82.74
2019-04-13T04:57:04.703Z,83.17
2019-04-13T04:59:34.735Z,83.28
2019-04-13T05:02:04.772Z,83.62
2019-04-13T05:04:35.417Z,83.84
2019-04-13T05:07:06.252Z,83.62
2019-04-13T05:09:37.867Z,83.53
2019-04-13T05:12:07.905Z,83.35
2019-04-13T05:14:38.520Z,83.24
2019-04-13T05:17:09.523Z,83.22
2019-04-13T05:19:39.974Z,83.37
2019-04-13T05:22:10.341Z,83.24
2019-04-13T05:24:42.821Z,83.21
2019-04-13T05:27:13.028Z,83.34
2019-04-13T05:29:44.016Z,83.28
2019-04-13T05:32:14.871Z,83.19
2019-04-13T05:34:45.011Z,82.77
2019-04-13T05:37:16.684Z,82.72
2019-04-13T05:40:03.293Z,82.89
2019-04-13T05:42:39.444Z,83.27
2019-04-13T05:45:10.474Z,83.26
2019-04-13T05:47:42.183Z,82.96
2019-04-13T05:50:13.653Z,82.97
2019-04-13T05:52:43.595Z,83.12
2019-04-13T05:55:15.882Z,82.78
2019-04-13T05:57:46.054Z,82.81
2019-04-13T06:00:18.535Z,82.61
2019-04-13T06:02:50.466Z,82.53
2019-04-13T06:05:21.376Z,82.82
2019-04-13T06:07:50.841Z,82.60
2019-04-13T06:10:21.526Z,83.01
2019-04-13T06:12:54.217Z,83.35
2019-04-13T06:15:22.987Z,83.37
2019-04-13T06:17:52.668Z,83.05
2019-04-13T06:20:23.160Z,82.91
2019-04-13T06:22:52.845Z,83.37
2019-04-13T06:25:28.889Z,82.97
2019-04-13T06:27:56.809Z,83.34
2019-04-13T06:30:46.501Z,83.45
2019-04-13T06:33:33.196Z,83.44
2019-04-13T06:36:03.198Z,83.24
2019-04-13T06:38:33.134Z,83.21
2019-04-13T06:41:02.907Z,83.48
2019-04-13T06:43:33.119Z,83.59
2019-04-13T06:46:09.213Z,83.02
2019-04-13T06:48:39.466Z,83.41
2019-04-13T06:51:11.184Z,83.80
2019-04-13T06:53:40.578Z,83.35
2019-04-13T06:56:10.327Z,83.41
2019-04-13T06:58:41.290Z,83.83
2019-04-13T07:01:11.477Z,83.78
2019-04-13T07:03:40.950Z,83.66
2019-04-13T07:06:10.373Z,83.59
2019-04-13T07:08:47.331Z,83.81
2019-04-13T07:11:40.816Z,83.15
2019-04-13T07:14:11.803Z,83.31
2019-04-13T07:16:58.556Z,82.88
2019-04-13T07:19:30.354Z,82.53
2019-04-13T07:22:00.185Z,81.50
2019-04-13T07:24:32.083Z,81.38
2019-04-13T07:27:02.435Z,80.93
2019-04-13T07:29:31.991Z,81.04
2019-04-13T07:32:02.590Z,79.28
2019-04-13T07:34:33.947Z,81.07
2019-04-13T07:37:04.348Z,79.78
2019-04-13T07:39:35.186Z,78.71
2019-04-13T07:42:05.626Z,79.70
2019-04-13T07:44:50.597Z,80.21
2019-04-13T07:47:40.582Z,78.50
2019-04-13T07:50:29.570Z,76.97
2019-04-13T07:53:03.507Z,76.66
2019-04-13T07:55:36.409Z,76.09
2019-04-13T07:58:06.501Z,71.62
2019-04-13T08:00:37.007Z,73.60
2019-04-13T08:03:08.413Z,73.71
2019-04-13T08:05:38.333Z,73.88
2019-04-13T08:08:09.223Z,72.35
2019-04-13T08:10:39.128Z,71.11
2019-04-13T08:13:09.354Z,67.58
2019-04-13T08:15:40.277Z,65.17
2019-04-13T08:18:12.885Z,64.89
2019-04-13T08:20:44.997Z,66.30
2019-04-13T08:23:15.328Z,67.04
2019-04-13T08:25:46.120Z,69.80
2019-04-13T08:28:16.252Z,67.25
2019-04-13T08:30:49.442Z,65.75
2019-04-13T08:33:20.183Z,66.21
2019-04-13T08:35:49.938Z,66.11
2019-04-13T08:38:26.337Z,67.48
2019-04-13T08:41:10.389Z,69.59
2019-04-13T08:43:32.090Z,64.79
2019-04-13T08:45:59.111Z,65.68
2019-04-13T08:48:29.412Z,68.65
2019-04-13T08:51:00.785Z,65.93
2019-04-13T08:53:31.195Z,66.63
2019-04-13T08:56:00.834Z,67.71
2019-04-13T08:58:32.522Z,65.91
2019-04-13T09:01:02.904Z,67.07
2019-04-13T09:03:33.875Z,66.02
2019-04-13T09:06:06.445Z,61.01
2019-04-13T09:08:36.503Z,60.41
2019-04-13T09:11:06.441Z,65.75
2019-04-13T09:13:36.142Z,61.38
2019-04-13T09:16:06.592Z,62.03
2019-04-13T09:18:56.871Z,60.00
2019-04-13T09:21:30.372Z,58.85
2019-04-13T09:23:59.696Z,58.46
2019-04-13T09:26:30.584Z,62.03
2019-04-13T09:29:00.445Z,62.72
2019-04-13T09:31:31.221Z,63.82
2019-04-13T09:34:00.932Z,63.26
2019-04-13T09:36:30.959Z,62.68
2019-04-13T09:39:01.104Z,61.09
2019-04-13T09:41:30.801Z,62.13
2019-04-13T09:44:06.144Z,59.02
2019-04-13T09:46:37.633Z,60.18
2019-04-13T09:49:10.625Z,58.04
2019-04-13T09:51:40.957Z,57.44
2019-04-13T09:54:11.065Z,58.00
2019-04-13T09:56:41.289Z,57.22
2019-04-13T09:59:13.635Z,54.04
2019-04-13T10:01:45.478Z,57.38
2019-04-13T10:04:28.430Z,54.85
2019-04-13T10:06:58.204Z,55.75
2019-04-13T10:09:27.556Z,57.34
2019-04-13T10:12:31.934Z,54.30
2019-04-13T10:15:28.934Z,52.41
2019-04-13T10:18:01.599Z,54.83
2019-04-13T10:20:33.544Z,55.42
2019-04-13T10:23:03.476Z,53.20
2019-04-13T10:25:38.112Z,55.40
2019-04-13T10:31:46.740Z,52.58
2019-04-13T10:34:16.856Z,53.81
2019-04-13T10:36:46.400Z,53.99
2019-04-13T10:39:15.931Z,50.77
2019-04-13T10:41:48.682Z,52.24
2019-04-13T10:44:21.390Z,49.87
2019-04-13T10:47:11.935Z,51.62
2019-04-13T10:49:57.877Z,50.58
2019-04-13T10:52:27.913Z,50.10
2019-04-13T10:54:57.325Z,49.09
2019-04-13T10:57:28.273Z,49.99
2019-04-13T10:59:58.629Z,48.92
2019-04-13T11:02:34.050Z,50.28
2019-04-13T11:05:03.733Z,51.05
2019-04-13T11:07:34.886Z,48.50
2019-04-13T11:10:05.065Z,52.70
2019-04-13T11:12:35.431Z,51.03
2019-04-13T11:15:10.368Z,50.71
2019-04-13T11:17:41.157Z,49.17
2019-04-13T11:20:14.597Z,48.69
2019-04-13T11:22:49.402Z,48.82
2019-04-13T11:25:21.777Z,48.63
2019-04-13T11:27:51.829Z,49.38
2019-04-13T11:30:22.247Z,46.75
2019-04-13T11:32:51.977Z,45.57
2019-04-13T11:35:24.124Z,46.29
2019-04-13T11:37:57.974Z,44.30
2019-04-13T11:40:29.356Z,46.14
2019-04-13T11:43:08.729Z,46.40
2019-04-13T11:45:53.576Z,47.55
2019-04-13T11:48:48.075Z,48.20
2019-04-13T11:51:22.107Z,46.24
2019-04-13T11:53:54.093Z,46.43
2019-04-13T11:56:23.827Z,43.91
2019-04-13T11:58:54.945Z,44.77
2019-04-13T12:01:32.609Z,42.99
2019-04-13T12:04:20.414Z,45.75
2019-04-13T12:06:58.247Z,45.87
2019-04-13T12:09:59.449Z,45.70
2019-04-13T12:12:47.913Z,46.56
2019-04-13T12:15:38.421Z,46.75
2019-04-13T12:18:38.197Z,45.52
2019-04-13T12:21:38.229Z,46.81
2019-04-13T12:24:13.029Z,46.26
2019-04-13T12:26:45.930Z,46.74
2019-04-13T12:29:15.251Z,45.69
2019-04-13T12:31:49.086Z,45.97
2019-04-13T12:34:26.042Z,45.48
2019-04-13T12:37:00.960Z,45.25
2019-04-13T12:39:31.520Z,46.86
2019-04-13T12:42:07.048Z,47.17
2019-04-13T12:44:39.921Z,46.57
2019-04-13T12:47:17.088Z,46.64
2019-04-13T12:49:47.080Z,46.07
2019-04-13T12:52:16.605Z,46.49
2019-04-13T12:54:46.514Z,46.48
2019-04-13T12:57:16.400Z,47.35
2019-04-13T12:59:48.646Z,45.49
2019-04-13T13:02:54.492Z,46.08
2019-04-13T13:05:28.047Z,44.94
2019-04-13T13:07:58.330Z,44.13
2019-04-13T13:10:27.933Z,44.38
2019-04-13T13:12:58.448Z,44.19
2019-04-13T13:15:28.469Z,44.58
2019-04-13T13:17:57.966Z,43.76
2019-04-13T13:20:28.712Z,42.65
2019-04-13T13:22:58.835Z,43.16
2019-04-13T13:25:30.169Z,45.75
2019-04-13T13:27:59.942Z,46.13
2019-04-13T13:30:29.873Z,45.71
2019-04-13T13:33:00.153Z,46.39
2019-04-13T13:35:32.843Z,47.94
2019-04-13T13:38:06.102Z,47.44
2019-04-13T13:40:36.179Z,47.54
2019-04-13T13:43:05.806Z,44.99
2019-04-13T13:45:35.556Z,45.54
2019-04-13T13:48:06.228Z,46.26
2019-04-13T13:50:37.361Z,44.54
2019-04-13T13:53:10.710Z,43.24
2019-04-13T13:55:39.912Z,41.68
2019-04-13T13:58:13.851Z,43.06
2019-04-13T14:01:01.164Z,41.15
2019-04-13T14:03:31.651Z,40.42
2019-04-13T14:06:02.122Z,41.51
2019-04-13T14:08:32.836Z,40.53
2019-04-13T14:11:03.085Z,42.56
2019-04-13T14:13:34.304Z,41.42
2019-04-13T14:16:04.871Z,41.63
2019-04-13T14:18:36.247Z,42.45
2019-04-13T14:21:07.616Z,40.47
2019-04-13T14:23:39.851Z,40.22
2019-04-13T14:26:12.233Z,39.77
2019-04-13T14:28:45.935Z,38.05
2019-04-13T14:31:17.415Z,38.25
2019-04-13T14:34:00.178Z,39.24
2019-04-13T14:36:35.070Z,40.76
2019-04-13T14:39:05.584Z,39.79
2019-04-13T14:41:41.504Z,41.44
2019-04-13T14:44:09.358Z,41.88
2019-04-13T14:46:39.217Z,40.24
2019-04-13T14:49:10.938Z,41.26
2019-04-13T14:51:40.809Z,41.48
2019-04-13T14:54:10.939Z,40.53
2019-04-13T14:56:41.914Z,39.96
2019-04-13T14:59:16.477Z,40.48
2019-04-13T15:01:45.721Z,42.84
2019-04-13T15:04:16.739Z,41.51
2019-04-13T15:06:49.246Z,40.00
2019-04-13T15:09:20.241Z,41.23
2019-04-13T15:11:52.322Z,42.09
2019-04-13T15:14:23.770Z,42.00
2019-04-13T15:17:01.640Z,42.14
2019-04-13T15:19:38.218Z,41.99
2019-04-13T15:22:03.668Z,42.26
2019-04-13T15:24:41.409Z,41.56
2019-04-13T15:27:13.335Z,42.90
2019-04-13T15:29:43.635Z,44.39
2019-04-13T15:32:23.887Z,45.75
2019-04-13T15:34:51.203Z,45.49
2019-04-13T15:37:23.428Z,46.21
2019-04-13T15:39:53.544Z,45.12
2019-04-13T15:42:36.043Z,44.49
2019-04-13T15:44:58.531Z,43.98
2019-04-13T15:47:31.046Z,43.24
2019-04-13T15:50:07.749Z,43.58
2019-04-13T15:52:44.714Z,44.17
2019-04-13T15:55:16.759Z,43.52
2019-04-13T15:57:52.048Z,43.60
2019-04-13T16:00:39.617Z,44.95
2019-04-13T16:03:10.470Z,44.09
2019-04-13T16:05:43.353Z,43.46
2019-04-13T16:08:17.970Z,43.66
2019-04-13T16:10:57.936Z,43.76
2019-04-13T16:13:30.572Z,43.71
2019-04-13T16:16:03.029Z,43.96
2019-04-13T16:18:34.770Z,44.12
2019-04-13T16:21:04.907Z,43.52
2019-04-13T16:23:35.580Z,43.58
2019-04-13T16:26:08.229Z,43.51
2019-04-13T16:29:23.055Z,44.72
2019-04-13T16:32:01.533Z,44.92
2019-04-13T16:34:51.052Z,45.88
2019-04-13T16:37:30.132Z,46.53
2019-04-13T16:39:59.977Z,49.25
2019-04-13T16:42:32.888Z,50.82
2019-04-13T16:45:38.437Z,50.99
2019-04-13T16:48:27.462Z,51.39
2019-04-13T16:51:16.833Z,50.53
2019-04-13T16:54:14.747Z,50.22
2019-04-13T16:56:52.296Z,49.41
2019-04-13T16:59:45.164Z,49.16
2019-04-13T17:02:40.391Z,50.26
2019-04-13T17:05:14.331Z,49.59
2019-04-13T17:07:46.875Z,49.99
2019-04-13T17:10:19.235Z,49.63
2019-04-13T17:12:49.420Z,49.53
2019-04-13T17:15:21.289Z,49.28
2019-04-13T17:17:53.639Z,49.94
2019-04-13T17:20:55.652Z,49.80
2019-04-13T17:31:03.479Z,51.32
2019-04-13T17:33:46.984Z,51.98
2019-04-13T17:36:17.657Z,51.83
2019-04-13T17:38:47.926Z,52.39
2019-04-13T17:41:27.553Z,51.82
2019-04-13T17:44:04.232Z,52.03
2019-04-13T17:46:59.774Z,51.92
2019-04-13T17:49:48.550Z,52.18
2019-04-13T17:52:46.478Z,52.12
2019-04-13T17:55:42.000Z,52.33
2019-04-13T17:58:35.069Z,52.49
2019-04-13T18:01:23.225Z,53.04
2019-04-13T18:04:26.720Z,53.44
2019-04-13T18:07:37.251Z,53.48
2019-04-13T18:10:23.254Z,53.49
2019-04-13T18:13:13.512Z,53.33
2019-04-13T18:16:04.309Z,53.54
2019-04-13T18:18:39.952Z,53.80
2019-04-13T18:21:15.676Z,54.05
2019-04-13T18:23:50.629Z,54.51
2019-04-13T18:26:20.677Z,54.26
2019-04-13T18:28:50.201Z,54.04
2019-04-13T18:31:20.703Z,53.86
2019-04-13T18:33:51.123Z,53.90
2019-04-13T18:36:21.408Z,54.15
2019-04-13T18:38:51.791Z,54.28
2019-04-13T18:41:22.292Z,54.13
2019-04-13T18:43:51.902Z,54.18
2019-04-13T18:46:47.628Z,54.29
2019-04-13T18:49:18.043Z,54.39
2019-04-13T18:52:01.080Z,53.99
2019-04-13T18:54:32.233Z,54.63
2019-04-13T18:58:18.584Z,54.50
2019-04-13T19:01:32.334Z,54.91
2019-04-13T19:04:01.206Z,55.18
2019-04-13T19:06:33.086Z,55.16
2019-04-13T19:09:07.980Z,54.89
2019-04-13T19:11:37.588Z,55.01
2019-04-13T19:14:07.007Z,55.25
2019-04-13T19:16:37.681Z,55.32
2019-04-13T19:19:07.366Z,55.53
2019-04-13T19:21:38.129Z,56.00
2019-04-13T19:24:07.996Z,56.32
2019-04-13T19:26:37.581Z,56.46
2019-04-13T19:29:07.053Z,56.75
2019-04-13T19:31:37.084Z,57.15
2019-04-13T19:34:06.483Z,57.15
2019-04-13T19:36:35.997Z,57.36
2019-04-13T19:39:07.475Z,57.19
2019-04-13T19:41:36.927Z,57.47
2019-04-13T19:44:06.805Z,57.70
2019-04-13T19:46:36.275Z,58.19
2019-04-13T19:49:06.768Z,58.49
2019-04-13T19:51:52.713Z,58.65
2019-04-13T19:54:22.495Z,58.42
2019-04-13T19:56:52.333Z,58.98
2019-04-13T19:59:21.867Z,58.69
2019-04-13T20:01:51.826Z,59.17
2019-04-13T20:04:26.816Z,59.09
2019-04-13T20:06:56.479Z,59.65
2019-04-13T20:09:27.623Z,60.24
2019-04-13T20:11:59.957Z,60.57
2019-04-13T20:14:28.759Z,60.93
2019-04-13T20:16:58.573Z,61.09
2019-04-13T20:19:28.024Z,61.15
2019-04-13T20:21:57.428Z,61.47
2019-04-13T20:24:26.844Z,61.53
2019-04-13T20:26:56.268Z,61.93
2019-04-13T20:29:25.789Z,62.96
2019-04-13T20:31:55.269Z,63.35
2019-04-13T20:34:24.908Z,63.60
2019-04-13T20:36:54.924Z,64.44
2019-04-13T20:39:26.619Z,65.04
2019-04-13T20:42:01.135Z,65.42
2019-04-13T20:44:28.121Z,65.43
2019-04-13T20:46:58.136Z,65.75
2019-04-13T20:49:28.696Z,65.95
2019-04-13T20:51:58.756Z,65.90
2019-04-13T20:54:28.184Z,66.48
2019-04-13T20:56:57.911Z,66.85
2019-04-13T20:59:28.256Z,66.71
2019-04-13T21:01:58.073Z,66.98
2019-04-13T21:04:28.459Z,67.16
2019-04-13T21:06:58.856Z,67.24
2019-04-13T21:09:30.764Z,67.25
2019-04-13T21:12:01.273Z,67.03
2019-04-13T21:14:36.564Z,66.85
2019-04-13T21:17:02.914Z,67.25
2019-04-13T21:19:32.795Z,67.02
2019-04-13T21:22:02.840Z,67.13
2019-04-13T21:24:33.037Z,66.96
2019-04-13T21:27:03.244Z,67.00
2019-04-13T21:29:32.888Z,67.13
2019-04-13T21:32:02.925Z,67.21
2019-04-13T21:34:33.222Z,67.54
2019-04-13T21:37:03.205Z,67.47
2019-04-13T21:39:33.275Z,67.40
2019-04-13T21:42:06.540Z,67.29
2019-04-13T21:44:37.658Z,67.21
2019-04-13T21:47:05.378Z,67.39
2019-04-13T21:49:34.671Z,67.46
2019-04-13T21:52:12.705Z,67.73
2019-04-13T21:54:45.318Z,67.73
2019-04-13T21:57:15.539Z,68.09
2019-04-13T21:59:45.746Z,68.04
2019-04-13T22:02:24.649Z,68.14
2019-04-13T22:04:54.453Z,68.12
2019-04-13T22:07:24.375Z,68.03
2019-04-13T22:09:54.349Z,67.84
2019-04-13T22:12:24.339Z,67.84
2019-04-13T22:15:00.438Z,67.61
2019-04-13T22:17:26.857Z,67.48
2019-04-13T22:19:57.306Z,67.39
2019-04-13T22:22:27.145Z,67.39
2019-04-13T22:24:57.088Z,67.06
2019-04-13T22:27:29.299Z,66.82
2019-04-13T22:29:59.807Z,66.46
2019-04-13T22:32:47.345Z,66.05
2019-04-13T22:35:43.207Z,66.29
2019-04-13T22:38:13.368Z,66.21
2019-04-13T22:40:43.578Z,66.00
2019-04-13T22:43:13.473Z,65.90
2019-04-13T22:45:42.831Z,65.88
2019-04-13T22:48:37.906Z,65.23
2019-04-13T22:51:22.910Z,65.47
2019-04-13T22:54:18.818Z,65.32
2019-04-13T22:56:55.297Z,65.24
2019-04-13T22:59:24.992Z,65.41
2019-04-13T23:02:19.708Z,65.42
2019-04-13T23:04:49.587Z,65.50
2019-04-13T23:07:21.606Z,65.33
2019-04-13T23:09:51.965Z,65.54
2019-04-13T23:12:22.441Z,65.48
2019-04-13T23:15:03.335Z,65.50
2019-04-13T23:17:24.456Z,65.44
2019-04-13T23:19:54.546Z,65.45
2019-04-13T23:22:24.025Z,65.37
2019-04-13T23:24:53.936Z,65.21
2019-04-13T23:27:24.164Z,65.28
2019-04-13T23:29:54.286Z,65.25
2019-04-13T23:32:24.863Z,65.33
2019-04-13T23:34:55.445Z,65.45
2019-04-13T23:37:27.918Z,65.63
2019-04-13T23:39:58.457Z,65.64
2019-04-13T23:42:28.630Z,65.58
2019-04-13T23:45:11.656Z,65.85
2019-04-13T23:47:31.886Z,65.91
2019-04-13T23:50:02.045Z,65.88
2019-04-13T23:52:32.629Z,66.28
2019-04-13T23:55:03.488Z,66.42
2019-04-13T23:57:46.468Z,66.47
